createdAt,value
2022-09-12T00:04:02.434Z,3.72
2022-09-12T00:08:05.494Z,3.92
2022-09-12T00:12:07.778Z,3.60
2022-09-12T00:16:20.171Z,3.25
2022-09-12T00:20:22.221Z,3.78
2022-09-12T00:24:24.500Z,3.55
2022-09-12T00:28:27.162Z,3.83
2022-09-12T00:32:29.283Z,4.32
2022-09-12T00:36:31.224Z,3.63
2022-09-12T00:40:33.438Z,4.28
2022-09-12T00:44:35.323Z,3.45
2022-09-12T00:48:46.792Z,3.55
2022-09-12T00:53:07.497Z,4.35
2022-09-12T00:57:12.329Z,4.25
2022-09-12T01:01:14.409Z,3.80
2022-09-12T01:05:17.384Z,5.13
2022-09-12T01:09:22.364Z,3.47
2022-09-12T01:13:25.741Z,4.03
2022-09-12T01:17:37.457Z,4.00
2022-09-12T01:22:11.325Z,4.20
2022-09-12T01:26:18.977Z,3.97
2022-09-12T01:30:42.795Z,3.93
2022-09-12T01:35:10.844Z,3.92
2022-09-12T01:39:28.136Z,4.25
2022-09-12T01:44:06.922Z,4.38
2022-09-12T01:48:37.356Z,4.10
2022-09-12T01:52:47.468Z,4.22
2022-09-12T01:56:55.675Z,4.10
2022-09-12T02:01:29.780Z,3.73
2022-09-12T02:05:40.093Z,4.22
2022-09-12T02:09:49.427Z,3.80
2022-09-12T02:14:01.546Z,4.07
2022-09-12T02:18:06.704Z,3.78
2022-09-12T02:22:16.014Z,3.65
2022-09-12T02:31:23.224Z,4.18
2022-09-12T02:35:34.394Z,4.53
2022-09-12T02:39:36.903Z,4.70
2022-09-12T02:43:39.464Z,4.82
2022-09-12T02:47:51.336Z,4.57
2022-09-12T02:51:53.818Z,4.53
2022-09-12T02:55:56.234Z,4.85
2022-09-12T03:00:01.794Z,4.68
2022-09-12T03:04:37.544Z,4.22
2022-09-12T03:08:57.446Z,3.53
2022-09-12T03:13:29.355Z,4.05
2022-09-12T03:17:40.825Z,4.32
2022-09-12T03:21:53.272Z,4.25
2022-09-12T03:26:12.959Z,3.30
2022-09-12T03:30:14.946Z,3.50
2022-09-12T03:34:17.895Z,3.67
2022-09-12T03:38:21.002Z,3.85
2022-09-12T03:42:23.230Z,3.50
2022-09-12T03:46:25.198Z,4.15
2022-09-12T03:50:27.797Z,3.75
2022-09-12T03:54:29.970Z,4.32
2022-09-12T03:58:32.222Z,4.15
2022-09-12T04:02:35.083Z,4.32
2022-09-12T04:06:37.404Z,4.70
2022-09-12T04:10:39.459Z,5.32
2022-09-12T04:14:42.145Z,4.57
2022-09-12T04:18:44.864Z,5.28
2022-09-12T04:22:47.438Z,5.78
2022-09-12T04:26:49.464Z,6.70
2022-09-12T04:30:51.933Z,6.60
2022-09-12T04:34:54.059Z,7.35
2022-09-12T04:38:56.548Z,7.25
2022-09-12T04:42:58.525Z,8.82
2022-09-12T04:47:00.585Z,7.13
2022-09-12T04:51:23.384Z,8.35
2022-09-12T04:55:26.424Z,9.00
2022-09-12T04:59:28.466Z,10.23
2022-09-12T05:03:40.205Z,11.65
2022-09-12T05:07:42.144Z,12.02
2022-09-12T05:12:04.983Z,11.10
2022-09-12T05:16:11.178Z,13.32
2022-09-12T05:20:13.514Z,12.68
2022-09-12T05:24:15.604Z,13.88
2022-09-12T05:28:18.202Z,14.48
2022-09-12T05:32:20.886Z,14.77
2022-09-12T05:36:29.639Z,13.77
2022-09-12T05:40:32.177Z,13.70
2022-09-12T05:44:34.444Z,12.52
2022-09-12T05:48:37.624Z,12.98
2022-09-12T05:52:40.184Z,10.70
2022-09-12T05:56:44.178Z,10.68
2022-09-12T06:00:46.576Z,10.13
2022-09-12T06:04:48.642Z,10.27
2022-09-12T06:08:53.810Z,11.10
2022-09-12T06:12:55.896Z,10.27
2022-09-12T06:16:58.303Z,10.00
2022-09-12T06:21:07.851Z,9.48
2022-09-12T06:25:10.078Z,9.05
2022-09-12T06:29:12.114Z,9.13
2022-09-12T06:33:15.207Z,8.52
2022-09-12T06:37:17.316Z,8.50
2022-09-12T06:41:19.664Z,9.07
2022-09-12T06:45:22.877Z,8.10
2022-09-12T06:49:25.166Z,8.75
2022-09-12T06:53:28.887Z,8.23
2022-09-12T06:57:31.665Z,8.15
2022-09-12T07:01:33.811Z,9.38
2022-09-12T07:05:36.158Z,7.03
2022-09-12T07:09:38.235Z,7.68
2022-09-12T07:13:42.285Z,8.20
2022-09-12T07:17:44.301Z,8.43
2022-09-12T07:21:46.483Z,7.05
2022-09-12T07:25:58.818Z,7.30
2022-09-12T07:30:01.694Z,7.25
2022-09-12T07:34:06.570Z,8.43
2022-09-12T07:38:09.565Z,7.93
2022-09-12T07:42:12.706Z,6.30
2022-09-12T07:46:15.096Z,7.05
2022-09-12T07:50:17.226Z,6.85
2022-09-12T07:54:20.051Z,6.72
2022-09-12T07:58:26.185Z,7.40
2022-09-12T08:02:28.378Z,6.90
2022-09-12T08:06:34.140Z,7.57
2022-09-12T08:10:36.891Z,6.55
2022-09-12T08:14:39.159Z,6.75
2022-09-12T08:18:42.265Z,6.60
2022-09-12T08:22:44.638Z,8.18
2022-09-12T08:26:46.898Z,7.63
2022-09-12T08:30:48.878Z,6.78
2022-09-12T08:34:51.129Z,7.35
2022-09-12T08:39:00.262Z,6.50
2022-09-12T08:43:28.904Z,7.25
2022-09-12T08:47:43.515Z,5.72
2022-09-12T08:51:46.075Z,6.65
2022-09-12T08:55:55.165Z,5.78
2022-09-12T08:59:57.522Z,6.03
2022-09-12T09:04:21.690Z,6.30
2022-09-12T09:08:30.367Z,5.32
2022-09-12T09:12:44.094Z,5.27
2022-09-12T09:16:50.941Z,4.53
2022-09-12T09:20:56.317Z,5.85
2022-09-12T09:25:05.036Z,5.25
2022-09-12T09:29:11.723Z,5.38
2022-09-12T09:33:26.755Z,5.05
2022-09-12T09:37:34.658Z,5.57
2022-09-12T09:42:10.187Z,5.45
2022-09-12T09:46:14.231Z,5.20
2022-09-12T09:50:17.720Z,5.38
2022-09-12T09:54:40.881Z,5.47
2022-09-12T09:58:43.734Z,4.68
2022-09-12T10:03:14.017Z,4.65
2022-09-12T10:07:21.249Z,4.10
2022-09-12T10:11:26.976Z,4.43
2022-09-12T10:15:29.673Z,5.03
2022-09-12T10:19:38.004Z,4.57
2022-09-12T10:23:41.615Z,4.45
2022-09-12T10:27:44.598Z,5.32
2022-09-12T10:31:57.710Z,4.82
2022-09-12T10:36:00.609Z,4.75
2022-09-12T10:40:06.060Z,4.55
2022-09-12T10:44:14.746Z,4.28
2022-09-12T10:52:25.814Z,4.15
2022-09-12T10:56:34.377Z,5.43
2022-09-12T11:00:42.451Z,4.88
2022-09-12T11:05:08.029Z,4.18
2022-09-12T11:09:24.784Z,4.72
2022-09-12T11:13:35.874Z,4.60
2022-09-12T11:18:14.837Z,3.83
2022-09-12T11:22:47.905Z,4.50
2022-09-12T11:27:36.888Z,5.53
2022-09-12T11:32:23.429Z,4.60
2022-09-12T11:36:59.125Z,5.85
2022-09-12T11:41:08.501Z,4.78
2022-09-12T11:45:20.105Z,4.50
2022-09-12T11:49:37.050Z,4.45
2022-09-12T11:53:42.743Z,4.65
2022-09-12T11:57:58.644Z,4.80
2022-09-12T12:02:04.677Z,5.07
2022-09-12T12:06:19.448Z,4.35
2022-09-12T12:10:32.538Z,4.30
2022-09-12T12:14:45.926Z,4.63
2022-09-12T12:18:55.943Z,3.70
2022-09-12T12:23:00.115Z,3.80
2022-09-12T12:27:23.250Z,4.32
2022-09-12T12:31:25.543Z,3.85
2022-09-12T12:35:37.566Z,3.03
2022-09-12T12:39:39.756Z,4.20
2022-09-12T12:43:42.094Z,4.32
2022-09-12T12:47:47.667Z,3.38
2022-09-12T12:51:57.354Z,3.85
2022-09-12T12:56:02.848Z,3.92
2022-09-12T13:00:25.299Z,3.95
2022-09-12T13:04:31.716Z,3.85
2022-09-12T13:08:36.965Z,3.95
2022-09-12T13:12:47.995Z,4.05
2022-09-12T13:17:01.976Z,3.67
2022-09-12T13:21:11.931Z,3.78
2022-09-12T13:25:28.974Z,3.80
2022-09-12T13:29:31.646Z,3.80
2022-09-12T13:33:39.873Z,4.05
2022-09-12T13:37:42.382Z,4.20
2022-09-12T13:41:47.140Z,4.22
2022-09-12T13:45:50.804Z,3.72
2022-09-12T13:49:54.148Z,3.83
2022-09-12T13:54:00.269Z,3.70
2022-09-12T13:58:05.208Z,4.72
2022-09-12T14:02:22.251Z,4.63
2022-09-12T14:06:25.158Z,4.22
2022-09-12T14:10:34.864Z,4.28
2022-09-12T14:14:48.019Z,4.35
2022-09-12T14:19:12.686Z,4.00
2022-09-12T14:23:27.696Z,4.18
2022-09-12T14:27:45.828Z,4.63
2022-09-12T14:32:04.354Z,4.25
2022-09-12T14:36:18.324Z,4.50
2022-09-12T14:40:23.763Z,5.13
2022-09-12T14:44:28.356Z,4.82
2022-09-12T14:48:37.583Z,5.00
2022-09-12T14:52:44.252Z,4.75
2022-09-12T14:56:58.936Z,5.13
2022-09-12T15:01:02.821Z,5.30
2022-09-12T15:05:04.855Z,5.18
2022-09-12T15:09:13.610Z,5.32
2022-09-12T15:13:19.835Z,5.18
2022-09-12T15:17:22.332Z,5.30
2022-09-12T15:21:24.559Z,5.78
2022-09-12T15:25:26.876Z,4.80
2022-09-12T15:29:28.913Z,5.28
2022-09-12T15:33:31.552Z,5.07
2022-09-12T15:37:33.633Z,5.72
2022-09-12T15:41:38.176Z,5.88
2022-09-12T15:45:44.736Z,5.85
2022-09-12T15:49:46.922Z,5.90
2022-09-12T15:53:51.154Z,6.10
2022-09-12T15:57:53.617Z,7.07
2022-09-12T16:01:55.820Z,6.00
2022-09-12T16:06:01.746Z,5.72
2022-09-12T16:10:04.176Z,6.00
2022-09-12T16:14:06.691Z,5.68
2022-09-12T16:18:08.955Z,5.90
2022-09-12T16:22:11.375Z,6.97
2022-09-12T16:26:14.000Z,5.72
2022-09-12T16:30:16.604Z,5.93
2022-09-12T16:34:18.775Z,6.55
2022-09-12T16:38:22.670Z,8.18
2022-09-12T16:42:24.749Z,7.75
2022-09-12T16:46:30.661Z,8.82
2022-09-12T16:50:33.101Z,8.65
2022-09-12T16:54:35.468Z,8.52
2022-09-12T16:58:42.062Z,7.45
2022-09-12T17:02:44.986Z,7.63
2022-09-12T17:06:46.905Z,9.02
2022-09-12T17:10:49.255Z,8.82
2022-09-12T17:14:51.904Z,8.50
2022-09-12T17:18:55.015Z,10.02
2022-09-12T17:22:57.338Z,14.45
2022-09-12T17:26:59.799Z,46.33
2022-09-12T17:31:05.459Z,60.95
2022-09-12T17:35:09.380Z,34.70
2022-09-12T17:39:13.120Z,57.22
2022-09-12T17:43:15.611Z,46.22
2022-09-12T17:47:17.659Z,77.35
2022-09-12T17:51:20.962Z,56.28
2022-09-12T17:55:23.104Z,71.85
2022-09-12T17:59:25.935Z,44.72
2022-09-12T18:03:28.177Z,36.03
2022-09-12T18:07:30.556Z,40.55
2022-09-12T18:11:33.561Z,30.30
2022-09-12T18:15:35.942Z,25.42
2022-09-12T18:19:38.744Z,19.20
2022-09-12T18:23:41.329Z,17.60
2022-09-12T18:27:43.618Z,16.38
2022-09-12T18:31:47.115Z,16.60
2022-09-12T18:35:49.160Z,13.73
2022-09-12T18:39:51.546Z,15.70
2022-09-12T18:43:55.778Z,15.68
2022-09-12T18:47:58.193Z,14.32
2022-09-12T18:52:00.277Z,15.27
2022-09-12T18:56:09.249Z,15.02
2022-09-12T19:04:16.717Z,15.70
2022-09-12T19:08:18.757Z,14.02
2022-09-12T19:12:21.057Z,13.60
2022-09-12T19:16:27.100Z,13.35
2022-09-12T19:20:29.447Z,12.23
2022-09-12T19:24:31.567Z,15.35
2022-09-12T19:28:34.698Z,13.20
2022-09-12T19:32:36.659Z,25.98
2022-09-12T19:36:47.446Z,40.15
2022-09-12T19:41:00.647Z,38.13
2022-09-12T19:45:02.957Z,40.13
2022-09-12T19:49:04.933Z,38.92
2022-09-12T19:53:07.083Z,34.30
2022-09-12T19:57:09.009Z,32.40
2022-09-12T20:01:17.135Z,26.38
2022-09-12T20:05:20.671Z,28.33
2022-09-12T20:09:22.917Z,23.83
2022-09-12T20:13:25.003Z,23.83
2022-09-12T20:17:27.205Z,20.95
2022-09-12T20:21:32.749Z,21.10
2022-09-12T20:25:34.975Z,22.58
2022-09-12T20:29:37.033Z,21.10
2022-09-12T20:33:39.672Z,20.88
2022-09-12T20:37:41.707Z,20.63
2022-09-12T20:41:44.044Z,18.75
2022-09-12T20:45:46.059Z,17.88
2022-09-12T20:49:48.276Z,17.63
2022-09-12T20:54:00.330Z,17.67
2022-09-12T20:58:02.555Z,16.45
2022-09-12T21:02:04.670Z,16.92
2022-09-12T21:06:08.905Z,18.40
2022-09-12T21:10:11.519Z,19.30
2022-09-12T21:14:13.805Z,19.15
2022-09-12T21:18:15.897Z,20.60
2022-09-12T21:22:18.293Z,16.05
2022-09-12T21:26:20.438Z,19.38
2022-09-12T21:30:23.094Z,19.88
2022-09-12T21:34:25.165Z,20.27
2022-09-12T21:38:27.404Z,19.92
2022-09-12T21:42:29.468Z,21.48
2022-09-12T21:46:31.752Z,20.40
2022-09-12T21:50:34.051Z,21.83
2022-09-12T21:54:36.480Z,24.95
2022-09-12T21:58:38.675Z,25.92
2022-09-12T22:02:41.226Z,24.30
2022-09-12T22:06:43.520Z,21.23
2022-09-12T22:10:45.741Z,24.30
2022-09-12T22:14:49.145Z,25.38
2022-09-12T22:18:52.694Z,24.98
2022-09-12T22:23:13.060Z,27.25
2022-09-12T22:27:15.255Z,21.92
2022-09-12T22:31:18.161Z,24.48
2022-09-12T22:35:21.177Z,24.67
2022-09-12T22:39:24.225Z,24.40
2022-09-12T22:43:26.464Z,23.98
2022-09-12T22:47:32.500Z,29.63
2022-09-12T22:51:34.880Z,26.27
2022-09-12T22:55:37.865Z,25.63
2022-09-12T22:59:40.259Z,25.13
2022-09-12T23:03:42.715Z,25.10
2022-09-12T23:07:44.966Z,28.08
2022-09-12T23:11:47.097Z,24.73
2022-09-12T23:16:01.022Z,27.00
2022-09-12T23:20:05.055Z,29.95
2022-09-12T23:24:07.450Z,27.67
2022-09-12T23:28:09.718Z,26.17
2022-09-12T23:32:12.123Z,29.15
2022-09-12T23:36:14.440Z,26.00
2022-09-12T23:40:17.244Z,30.75
2022-09-12T23:44:19.320Z,26.02
2022-09-12T23:48:21.585Z,27.48
2022-09-12T23:52:23.677Z,26.45
2022-09-12T23:56:26.211Z,26.55
